sensor_id;sensor_type;location;lat;lon;timestamp;P1;durP1;ratioP1;P2;durP2;ratioP2
50102;SDS011;35993;52.604;10.078;2022-12-18T00:01:22;23.10;;;9.93;;
50102;SDS011;35993;52.604;10.078;2022-12-18T00:03:50;19.00;;;9.27;;
50102;SDS011;35993;52.604;10.078;2022-12-18T00:06:16;19.07;;;8.83;;
50102;SDS011;35993;52.604;10.078;2022-12-18T00:08:43;20.10;;;10.03;;
50102;SDS011;35993;52.604;10.078;2022-12-18T00:11:14;23.63;;;11.03;;
50102;SDS011;35993;52.604;10.078;2022-12-18T00:13:41;24.75;;;10.85;;
50102;SDS011;35993;52.604;10.078;2022-12-18T00:16:11;28.27;;;11.50;;
50102;SDS011;35993;52.604;10.078;2022-12-18T00:18:39;25.73;;;11.07;;
50102;SDS011;35993;52.604;10.078;2022-12-18T00:21:06;20.43;;;10.00;;
50102;SDS011;35993;52.604;10.078;2022-12-18T00:23:33;21.67;;;10.30;;
50102;SDS011;35993;52.604;10.078;2022-12-18T00:26:04;18.43;;;9.40;;
50102;SDS011;35993;52.604;10.078;2022-12-18T00:28:32;22.65;;;10.55;;
50102;SDS011;35993;52.604;10.078;2022-12-18T00:33:34;20.00;;;10.30;;
50102;SDS011;35993;52.604;10.078;2022-12-18T00:36:01;18.93;;;10.30;;
50102;SDS011;35993;52.604;10.078;2022-12-18T00:38:40;20.30;;;9.33;;
50102;SDS011;35993;52.604;10.078;2022-12-18T00:41:06;19.70;;;10.20;;
50102;SDS011;35993;52.604;10.078;2022-12-18T00:43:34;24.00;;;10.30;;
50102;SDS011;35993;52.604;10.078;2022-12-18T00:46:01;23.33;;;10.30;;
50102;SDS011;35993;52.604;10.078;2022-12-18T00:48:27;23.57;;;10.57;;
50102;SDS011;35993;52.604;10.078;2022-12-18T00:50:52;20.63;;;9.83;;
50102;SDS011;35993;52.604;10.078;2022-12-18T00:53:19;21.53;;;10.20;;
50102;SDS011;35993;52.604;10.078;2022-12-18T00:55:45;20.30;;;9.70;;
50102;SDS011;35993;52.604;10.078;2022-12-18T00:58:12;18.17;;;9.73;;
50102;SDS011;35993;52.604;10.078;2022-12-18T01:00:40;22.03;;;10.23;;
50102;SDS011;35993;52.604;10.078;2022-12-18T01:03:12;20.43;;;9.57;;
50102;SDS011;35993;52.604;10.078;2022-12-18T01:05:39;19.30;;;9.17;;
50102;SDS011;35993;52.604;10.078;2022-12-18T01:08:05;24.37;;;9.00;;
50102;SDS011;35993;52.604;10.078;2022-12-18T01:10:32;17.37;;;8.60;;
50102;SDS011;35993;52.604;10.078;2022-12-18T01:12:58;22.30;;;9.67;;
50102;SDS011;35993;52.604;10.078;2022-12-18T01:15:26;20.83;;;9.20;;
50102;SDS011;35993;52.604;10.078;2022-12-18T01:17:52;20.73;;;9.07;;
50102;SDS011;35993;52.604;10.078;2022-12-18T01:20:19;23.00;;;9.10;;
50102;SDS011;35993;52.604;10.078;2022-12-18T01:22:47;17.63;;;8.20;;
50102;SDS011;35993;52.604;10.078;2022-12-18T01:25:14;18.70;;;8.03;;
50102;SDS011;35993;52.604;10.078;2022-12-18T01:27:39;19.73;;;8.83;;
50102;SDS011;35993;52.604;10.078;2022-12-18T01:30:05;19.00;;;9.40;;
50102;SDS011;35993;52.604;10.078;2022-12-18T01:32:34;22.13;;;9.10;;
50102;SDS011;35993;52.604;10.078;2022-12-18T01:35:01;17.57;;;8.03;;
50102;SDS011;35993;52.604;10.078;2022-12-18T01:37:27;16.50;;;8.20;;
50102;SDS011;35993;52.604;10.078;2022-12-18T01:39:57;20.20;;;9.00;;
50102;SDS011;35993;52.604;10.078;2022-12-18T01:42:22;21.40;;;9.17;;
50102;SDS011;35993;52.604;10.078;2022-12-18T01:47:48;12.87;;;7.33;;
50102;SDS011;35993;52.604;10.078;2022-12-18T01:50:18;19.92;;;7.88;;
50102;SDS011;35993;52.604;10.078;2022-12-18T01:53:30;22.13;;;7.87;;
50102;SDS011;35993;52.604;10.078;2022-12-18T01:55:51;17.53;;;7.23;;
50102;SDS011;35993;52.604;10.078;2022-12-18T01:58:20;18.83;;;7.80;;
50102;SDS011;35993;52.604;10.078;2022-12-18T02:00:54;15.63;;;7.30;;
50102;SDS011;35993;52.604;10.078;2022-12-18T02:03:20;14.53;;;7.13;;
50102;SDS011;35993;52.604;10.078;2022-12-18T02:05:47;19.87;;;8.33;;
50102;SDS011;35993;52.604;10.078;2022-12-18T02:16:17;15.50;;;6.85;;
50102;SDS011;35993;52.604;10.078;2022-12-18T02:19:15;14.50;;;6.87;;
50102;SDS011;35993;52.604;10.078;2022-12-18T02:28:09;14.70;;;7.03;;
50102;SDS011;35993;52.604;10.078;2022-12-18T02:30:39;15.27;;;7.30;;
50102;SDS011;35993;52.604;10.078;2022-12-18T02:33:06;15.37;;;7.17;;
50102;SDS011;35993;52.604;10.078;2022-12-18T02:35:34;18.20;;;6.87;;
50102;SDS011;35993;52.604;10.078;2022-12-18T02:38:03;16.00;;;7.80;;
50102;SDS011;35993;52.604;10.078;2022-12-18T02:40:33;15.10;;;7.30;;
50102;SDS011;35993;52.604;10.078;2022-12-18T02:43:09;16.00;;;7.00;;
50102;SDS011;35993;52.604;10.078;2022-12-18T02:45:45;19.37;;;7.00;;
50102;SDS011;35993;52.604;10.078;2022-12-18T02:48:21;14.17;;;6.93;;
50102;SDS011;35993;52.604;10.078;2022-12-18T02:53:36;17.00;;;7.70;;
50102;SDS011;35993;52.604;10.078;2022-12-18T02:56:16;17.37;;;6.83;;
50102;SDS011;35993;52.604;10.078;2022-12-18T02:58:50;15.40;;;7.17;;
50102;SDS011;35993;52.604;10.078;2022-12-18T03:01:50;14.23;;;6.80;;
50102;SDS011;35993;52.604;10.078;2022-12-18T03:04:25;13.43;;;7.00;;
50102;SDS011;35993;52.604;10.078;2022-12-18T03:06:56;13.60;;;7.53;;
50102;SDS011;35993;52.604;10.078;2022-12-18T03:09:34;14.37;;;7.33;;
50102;SDS011;35993;52.604;10.078;2022-12-18T03:14:50;10.10;;;6.07;;
50102;SDS011;35993;52.604;10.078;2022-12-18T03:17:22;13.93;;;6.50;;
50102;SDS011;35993;52.604;10.078;2022-12-18T03:19:51;14.93;;;6.67;;
50102;SDS011;35993;52.604;10.078;2022-12-18T03:22:21;15.20;;;6.57;;
50102;SDS011;35993;52.604;10.078;2022-12-18T03:24:51;15.70;;;6.67;;
50102;SDS011;35993;52.604;10.078;2022-12-18T03:27:19;12.07;;;6.87;;
50102;SDS011;35993;52.604;10.078;2022-12-18T03:30:00;15.27;;;6.90;;
50102;SDS011;35993;52.604;10.078;2022-12-18T03:32:39;15.70;;;7.57;;
50102;SDS011;35993;52.604;10.078;2022-12-18T03:35:10;15.63;;;6.73;;
50102;SDS011;35993;52.604;10.078;2022-12-18T03:37:39;17.47;;;6.57;;
50102;SDS011;35993;52.604;10.078;2022-12-18T03:40:06;12.97;;;6.77;;
50102;SDS011;35993;52.604;10.078;2022-12-18T03:42:52;13.17;;;6.80;;
50102;SDS011;35993;52.604;10.078;2022-12-18T03:48:22;11.13;;;5.90;;
50102;SDS011;35993;52.604;10.078;2022-12-18T03:50:55;13.43;;;6.63;;
50102;SDS011;35993;52.604;10.078;2022-12-18T03:56:22;11.93;;;6.40;;
50102;SDS011;35993;52.604;10.078;2022-12-18T03:58:52;14.93;;;6.53;;
50102;SDS011;35993;52.604;10.078;2022-12-18T04:01:28;11.77;;;6.10;;
50102;SDS011;35993;52.604;10.078;2022-12-18T04:03:59;11.77;;;6.40;;
50102;SDS011;35993;52.604;10.078;2022-12-18T04:06:28;12.53;;;6.00;;
50102;SDS011;35993;52.604;10.078;2022-12-18T04:08:55;14.03;;;6.73;;
50102;SDS011;35993;52.604;10.078;2022-12-18T04:11:25;17.83;;;6.90;;
50102;SDS011;35993;52.604;10.078;2022-12-18T04:13:52;14.17;;;6.20;;
50102;SDS011;35993;52.604;10.078;2022-12-18T04:16:22;13.50;;;6.80;;
50102;SDS011;35993;52.604;10.078;2022-12-18T04:18:51;15.40;;;6.60;;
50102;SDS011;35993;52.604;10.078;2022-12-18T04:21:18;13.63;;;6.33;;
50102;SDS011;35993;52.604;10.078;2022-12-18T04:23:45;15.47;;;7.17;;
50102;SDS011;35993;52.604;10.078;2022-12-18T04:26:11;14.57;;;7.07;;
50102;SDS011;35993;52.604;10.078;2022-12-18T04:28:57;15.23;;;6.70;;
50102;SDS011;35993;52.604;10.078;2022-12-18T04:31:23;14.17;;;6.70;;
50102;SDS011;35993;52.604;10.078;2022-12-18T04:34:10;12.87;;;6.27;;
50102;SDS011;35993;52.604;10.078;2022-12-18T04:36:41;11.52;;;5.95;;
50102;SDS011;35993;52.604;10.078;2022-12-18T04:39:07;12.60;;;6.27;;
50102;SDS011;35993;52.604;10.078;2022-12-18T04:41:33;11.80;;;6.77;;
50102;SDS011;35993;52.604;10.078;2022-12-18T04:43:59;14.07;;;6.30;;
50102;SDS011;35993;52.604;10.078;2022-12-18T04:46:24;13.83;;;6.47;;
50102;SDS011;35993;52.604;10.078;2022-12-18T04:48:50;20.13;;;7.57;;
50102;SDS011;35993;52.604;10.078;2022-12-18T04:51:15;10.73;;;5.97;;
50102;SDS011;35993;52.604;10.078;2022-12-18T04:53:41;21.00;;;6.63;;
50102;SDS011;35993;52.604;10.078;2022-12-18T04:56:11;14.87;;;6.73;;
50102;SDS011;35993;52.604;10.078;2022-12-18T04:58:39;12.18;;;6.38;;
50102;SDS011;35993;52.604;10.078;2022-12-18T05:01:06;12.53;;;6.00;;
50102;SDS011;35993;52.604;10.078;2022-12-18T05:03:32;12.17;;;6.43;;
50102;SDS011;35993;52.604;10.078;2022-12-18T05:05:59;14.30;;;6.77;;
50102;SDS011;35993;52.604;10.078;2022-12-18T05:08:25;15.37;;;6.70;;
50102;SDS011;35993;52.604;10.078;2022-12-18T05:10:57;13.40;;;6.67;;
50102;SDS011;35993;52.604;10.078;2022-12-18T05:13:25;12.83;;;6.17;;
50102;SDS011;35993;52.604;10.078;2022-12-18T05:15:51;15.47;;;6.87;;
50102;SDS011;35993;52.604;10.078;2022-12-18T05:18:18;15.70;;;6.83;;
50102;SDS011;35993;52.604;10.078;2022-12-18T05:20:43;13.13;;;6.43;;
50102;SDS011;35993;52.604;10.078;2022-12-18T05:23:09;14.63;;;6.70;;
50102;SDS011;35993;52.604;10.078;2022-12-18T05:25:35;14.27;;;7.17;;
50102;SDS011;35993;52.604;10.078;2022-12-18T05:28:00;14.93;;;6.67;;
50102;SDS011;35993;52.604;10.078;2022-12-18T05:30:26;12.60;;;6.40;;
50102;SDS011;35993;52.604;10.078;2022-12-18T05:32:52;14.23;;;7.03;;
50102;SDS011;35993;52.604;10.078;2022-12-18T05:35:18;19.03;;;7.23;;
50102;SDS011;35993;52.604;10.078;2022-12-18T05:37:44;14.83;;;7.30;;
50102;SDS011;35993;52.604;10.078;2022-12-18T05:40:33;16.23;;;6.93;;
50102;SDS011;35993;52.604;10.078;2022-12-18T05:42:58;16.60;;;7.33;;
50102;SDS011;35993;52.604;10.078;2022-12-18T05:45:24;13.53;;;6.47;;
50102;SDS011;35993;52.604;10.078;2022-12-18T05:47:50;15.30;;;7.73;;
50102;SDS011;35993;52.604;10.078;2022-12-18T05:50:15;14.37;;;6.97;;
50102;SDS011;35993;52.604;10.078;2022-12-18T05:53:02;15.87;;;7.07;;
50102;SDS011;35993;52.604;10.078;2022-12-18T05:55:28;15.47;;;7.70;;
50102;SDS011;35993;52.604;10.078;2022-12-18T05:57:57;15.17;;;6.70;;
50102;SDS011;35993;52.604;10.078;2022-12-18T06:00:36;15.17;;;7.30;;
50102;SDS011;35993;52.604;10.078;2022-12-18T06:03:07;18.90;;;8.10;;
50102;SDS011;35993;52.604;10.078;2022-12-18T06:06:02;15.50;;;7.53;;
50102;SDS011;35993;52.604;10.078;2022-12-18T06:08:28;15.07;;;7.50;;
50102;SDS011;35993;52.604;10.078;2022-12-18T06:10:54;17.77;;;7.63;;
50102;SDS011;35993;52.604;10.078;2022-12-18T06:13:20;21.80;;;7.93;;
50102;SDS011;35993;52.604;10.078;2022-12-18T06:15:46;17.03;;;8.17;;
50102;SDS011;35993;52.604;10.078;2022-12-18T06:18:12;20.00;;;8.43;;
50102;SDS011;35993;52.604;10.078;2022-12-18T06:20:43;18.15;;;8.48;;
50102;SDS011;35993;52.604;10.078;2022-12-18T06:23:09;15.87;;;8.13;;
50102;SDS011;35993;52.604;10.078;2022-12-18T06:25:37;15.77;;;7.37;;
50102;SDS011;35993;52.604;10.078;2022-12-18T06:28:22;14.40;;;7.27;;
50102;SDS011;35993;52.604;10.078;2022-12-18T06:30:48;17.23;;;8.00;;
50102;SDS011;35993;52.604;10.078;2022-12-18T06:33:14;17.03;;;8.43;;
50102;SDS011;35993;52.604;10.078;2022-12-18T06:35:40;15.23;;;7.93;;
50102;SDS011;35993;52.604;10.078;2022-12-18T06:38:39;15.60;;;7.80;;
50102;SDS011;35993;52.604;10.078;2022-12-18T06:41:10;19.63;;;8.60;;
50102;SDS011;35993;52.604;10.078;2022-12-18T06:43:40;16.27;;;8.30;;
50102;SDS011;35993;52.604;10.078;2022-12-18T06:46:06;14.00;;;7.77;;
50102;SDS011;35993;52.604;10.078;2022-12-18T06:48:32;19.90;;;8.07;;
50102;SDS011;35993;52.604;10.078;2022-12-18T06:50:58;16.67;;;8.13;;
50102;SDS011;35993;52.604;10.078;2022-12-18T06:53:24;15.07;;;7.97;;
50102;SDS011;35993;52.604;10.078;2022-12-18T06:55:50;18.73;;;8.63;;
50102;SDS011;35993;52.604;10.078;2022-12-18T06:58:16;18.30;;;9.10;;
50102;SDS011;35993;52.604;10.078;2022-12-18T07:00:42;31.93;;;12.33;;
50102;SDS011;35993;52.604;10.078;2022-12-18T07:03:08;28.60;;;12.57;;
50102;SDS011;35993;52.604;10.078;2022-12-18T07:05:34;50.47;;;17.83;;
50102;SDS011;35993;52.604;10.078;2022-12-18T07:07:59;46.17;;;17.47;;
50102;SDS011;35993;52.604;10.078;2022-12-18T07:10:25;30.60;;;12.80;;
50102;SDS011;35993;52.604;10.078;2022-12-18T07:12:51;32.33;;;12.30;;
50102;SDS011;35993;52.604;10.078;2022-12-18T07:15:17;21.13;;;9.17;;
50102;SDS011;35993;52.604;10.078;2022-12-18T07:17:42;28.83;;;12.33;;
50102;SDS011;35993;52.604;10.078;2022-12-18T07:20:08;20.77;;;10.77;;
50102;SDS011;35993;52.604;10.078;2022-12-18T07:22:34;16.33;;;8.30;;
50102;SDS011;35993;52.604;10.078;2022-12-18T07:25:00;21.03;;;9.77;;
50102;SDS011;35993;52.604;10.078;2022-12-18T07:27:25;17.97;;;8.57;;
50102;SDS011;35993;52.604;10.078;2022-12-18T07:29:51;20.63;;;9.33;;
50102;SDS011;35993;52.604;10.078;2022-12-18T07:32:17;18.67;;;9.47;;
50102;SDS011;35993;52.604;10.078;2022-12-18T07:34:43;17.27;;;9.07;;
50102;SDS011;35993;52.604;10.078;2022-12-18T07:37:09;18.20;;;8.87;;
50102;SDS011;35993;52.604;10.078;2022-12-18T07:39:34;19.30;;;9.00;;
50102;SDS011;35993;52.604;10.078;2022-12-18T07:42:00;18.17;;;8.93;;
50102;SDS011;35993;52.604;10.078;2022-12-18T07:45:07;18.07;;;9.47;;
50102;SDS011;35993;52.604;10.078;2022-12-18T07:47:35;19.53;;;9.30;;
50102;SDS011;35993;52.604;10.078;2022-12-18T07:50:02;20.00;;;8.60;;
50102;SDS011;35993;52.604;10.078;2022-12-18T07:52:28;17.37;;;9.27;;
50102;SDS011;35993;52.604;10.078;2022-12-18T07:54:54;21.07;;;9.67;;
50102;SDS011;35993;52.604;10.078;2022-12-18T07:57:19;18.90;;;9.03;;
50102;SDS011;35993;52.604;10.078;2022-12-18T07:59:45;25.83;;;9.83;;
50102;SDS011;35993;52.604;10.078;2022-12-18T08:02:11;18.60;;;8.80;;
50102;SDS011;35993;52.604;10.078;2022-12-18T08:04:36;23.50;;;9.87;;
50102;SDS011;35993;52.604;10.078;2022-12-18T08:07:02;21.20;;;9.90;;
50102;SDS011;35993;52.604;10.078;2022-12-18T08:09:28;22.57;;;9.97;;
50102;SDS011;35993;52.604;10.078;2022-12-18T08:11:54;21.80;;;10.40;;
50102;SDS011;35993;52.604;10.078;2022-12-18T08:14:20;18.57;;;10.03;;
50102;SDS011;35993;52.604;10.078;2022-12-18T08:16:46;21.47;;;10.03;;
50102;SDS011;35993;52.604;10.078;2022-12-18T08:19:12;20.20;;;10.30;;
50102;SDS011;35993;52.604;10.078;2022-12-18T08:21:41;22.37;;;10.83;;
50102;SDS011;35993;52.604;10.078;2022-12-18T08:24:29;23.80;;;10.02;;
50102;SDS011;35993;52.604;10.078;2022-12-18T08:26:55;17.53;;;9.43;;
50102;SDS011;35993;52.604;10.078;2022-12-18T08:29:22;19.70;;;10.17;;
50102;SDS011;35993;52.604;10.078;2022-12-18T08:31:48;21.87;;;9.37;;
50102;SDS011;35993;52.604;10.078;2022-12-18T08:34:14;23.13;;;9.80;;
50102;SDS011;35993;52.604;10.078;2022-12-18T08:36:39;20.10;;;10.27;;
50102;SDS011;35993;52.604;10.078;2022-12-18T08:39:05;20.67;;;9.87;;
50102;SDS011;35993;52.604;10.078;2022-12-18T08:41:30;20.87;;;10.17;;
50102;SDS011;35993;52.604;10.078;2022-12-18T08:43:56;25.57;;;10.60;;
50102;SDS011;35993;52.604;10.078;2022-12-18T08:46:41;23.27;;;9.30;;
50102;SDS011;35993;52.604;10.078;2022-12-18T08:49:08;18.03;;;9.30;;
50102;SDS011;35993;52.604;10.078;2022-12-18T08:51:35;24.60;;;10.20;;
50102;SDS011;35993;52.604;10.078;2022-12-18T08:54:02;19.73;;;9.77;;
50102;SDS011;35993;52.604;10.078;2022-12-18T08:56:54;23.75;;;10.43;;
50102;SDS011;35993;52.604;10.078;2022-12-18T08:59:19;19.97;;;10.00;;
50102;SDS011;35993;52.604;10.078;2022-12-18T09:01:45;20.83;;;9.80;;
50102;SDS011;35993;52.604;10.078;2022-12-18T09:04:12;22.57;;;9.60;;
50102;SDS011;35993;52.604;10.078;2022-12-18T09:06:39;22.27;;;9.80;;
50102;SDS011;35993;52.604;10.078;2022-12-18T09:09:05;25.97;;;10.73;;
50102;SDS011;35993;52.604;10.078;2022-12-18T09:11:31;20.50;;;9.33;;
50102;SDS011;35993;52.604;10.078;2022-12-18T09:13:57;20.93;;;10.43;;
50102;SDS011;35993;52.604;10.078;2022-12-18T09:16:24;20.23;;;9.00;;
50102;SDS011;35993;52.604;10.078;2022-12-18T09:18:56;19.92;;;9.88;;
50102;SDS011;35993;52.604;10.078;2022-12-18T09:21:25;21.77;;;9.13;;
50102;SDS011;35993;52.604;10.078;2022-12-18T09:23:53;19.17;;;9.40;;
50102;SDS011;35993;52.604;10.078;2022-12-18T09:26:23;21.33;;;10.03;;
50102;SDS011;35993;52.604;10.078;2022-12-18T09:28:50;17.83;;;9.20;;
50102;SDS011;35993;52.604;10.078;2022-12-18T09:31:17;20.77;;;9.83;;
50102;SDS011;35993;52.604;10.078;2022-12-18T09:33:44;20.07;;;9.97;;
50102;SDS011;35993;52.604;10.078;2022-12-18T09:36:11;20.80;;;9.43;;
50102;SDS011;35993;52.604;10.078;2022-12-18T09:38:38;21.83;;;9.30;;
50102;SDS011;35993;52.604;10.078;2022-12-18T09:41:05;20.33;;;9.07;;
50102;SDS011;35993;52.604;10.078;2022-12-18T09:43:58;16.87;;;8.67;;
50102;SDS011;35993;52.604;10.078;2022-12-18T09:46:34;18.83;;;9.30;;
50102;SDS011;35993;52.604;10.078;2022-12-18T09:49:10;23.10;;;9.30;;
50102;SDS011;35993;52.604;10.078;2022-12-18T09:51:42;21.00;;;9.30;;
50102;SDS011;35993;52.604;10.078;2022-12-18T09:54:14;17.47;;;8.70;;
50102;SDS011;35993;52.604;10.078;2022-12-18T09:56:45;23.13;;;10.33;;
50102;SDS011;35993;52.604;10.078;2022-12-18T09:59:18;17.67;;;9.27;;
50102;SDS011;35993;52.604;10.078;2022-12-18T10:01:48;20.20;;;9.40;;
50102;SDS011;35993;52.604;10.078;2022-12-18T10:04:14;20.50;;;9.90;;
50102;SDS011;35993;52.604;10.078;2022-12-18T10:09:27;19.57;;;10.20;;
50102;SDS011;35993;52.604;10.078;2022-12-18T10:14:44;22.38;;;10.38;;
50102;SDS011;35993;52.604;10.078;2022-12-18T10:20:01;19.57;;;10.07;;
50102;SDS011;35993;52.604;10.078;2022-12-18T10:22:48;17.73;;;8.37;;
50102;SDS011;35993;52.604;10.078;2022-12-18T10:25:55;19.80;;;9.13;;
50102;SDS011;35993;52.604;10.078;2022-12-18T10:28:40;19.07;;;9.13;;
50102;SDS011;35993;52.604;10.078;2022-12-18T10:31:07;20.23;;;9.87;;
50102;SDS011;35993;52.604;10.078;2022-12-18T10:33:39;19.73;;;9.20;;
50102;SDS011;35993;52.604;10.078;2022-12-18T10:36:15;20.33;;;8.97;;
50102;SDS011;35993;52.604;10.078;2022-12-18T10:38:41;24.43;;;10.53;;
50102;SDS011;35993;52.604;10.078;2022-12-18T10:43:43;20.23;;;9.13;;
50102;SDS011;35993;52.604;10.078;2022-12-18T10:46:28;23.33;;;10.00;;
50102;SDS011;35993;52.604;10.078;2022-12-18T10:48:54;20.20;;;9.40;;
50102;SDS011;35993;52.604;10.078;2022-12-18T10:51:26;22.43;;;10.60;;
50102;SDS011;35993;52.604;10.078;2022-12-18T10:56:42;20.13;;;10.30;;
50102;SDS011;35993;52.604;10.078;2022-12-18T10:59:09;20.80;;;9.97;;
50102;SDS011;35993;52.604;10.078;2022-12-18T11:01:47;22.70;;;9.87;;
50102;SDS011;35993;52.604;10.078;2022-12-18T11:04:28;18.73;;;9.53;;
50102;SDS011;35993;52.604;10.078;2022-12-18T11:06:57;26.77;;;10.37;;
50102;SDS011;35993;52.604;10.078;2022-12-18T11:09:34;18.77;;;9.55;;
50102;SDS011;35993;52.604;10.078;2022-12-18T11:12:02;19.80;;;9.17;;
50102;SDS011;35993;52.604;10.078;2022-12-18T11:14:50;20.93;;;9.73;;
50102;SDS011;35993;52.604;10.078;2022-12-18T11:17:37;19.07;;;10.37;;
50102;SDS011;35993;52.604;10.078;2022-12-18T11:20:04;24.70;;;9.27;;
50102;SDS011;35993;52.604;10.078;2022-12-18T11:22:35;18.23;;;8.73;;
50102;SDS011;35993;52.604;10.078;2022-12-18T11:25:16;20.60;;;9.17;;
50102;SDS011;35993;52.604;10.078;2022-12-18T11:28:03;20.00;;;9.60;;
50102;SDS011;35993;52.604;10.078;2022-12-18T11:30:48;22.17;;;9.67;;
50102;SDS011;35993;52.604;10.078;2022-12-18T11:33:18;19.30;;;9.23;;
50102;SDS011;35993;52.604;10.078;2022-12-18T11:36:05;20.23;;;9.57;;
50102;SDS011;35993;52.604;10.078;2022-12-18T11:38:38;18.87;;;9.33;;
50102;SDS011;35993;52.604;10.078;2022-12-18T11:44:26;20.47;;;9.03;;
50102;SDS011;35993;52.604;10.078;2022-12-18T11:47:01;19.07;;;9.00;;
50102;SDS011;35993;52.604;10.078;2022-12-18T11:49:34;19.67;;;9.90;;
50102;SDS011;35993;52.604;10.078;2022-12-18T11:52:04;18.83;;;9.60;;
50102;SDS011;35993;52.604;10.078;2022-12-18T11:54:40;17.80;;;9.17;;
50102;SDS011;35993;52.604;10.078;2022-12-18T11:59:50;20.37;;;10.00;;
50102;SDS011;35993;52.604;10.078;2022-12-18T12:06:10;22.97;;;9.60;;
50102;SDS011;35993;52.604;10.078;2022-12-18T12:16:51;21.10;;;9.80;;
50102;SDS011;35993;52.604;10.078;2022-12-18T12:27:46;20.47;;;9.77;;
50102;SDS011;35993;52.604;10.078;2022-12-18T12:30:21;18.47;;;9.20;;
50102;SDS011;35993;52.604;10.078;2022-12-18T12:38:24;19.80;;;8.87;;
50102;SDS011;35993;52.604;10.078;2022-12-18T12:40:59;17.90;;;8.57;;
50102;SDS011;35993;52.604;10.078;2022-12-18T12:43:46;19.43;;;8.73;;
50102;SDS011;35993;52.604;10.078;2022-12-18T12:46:15;19.07;;;9.10;;
50102;SDS011;35993;52.604;10.078;2022-12-18T12:49:03;21.80;;;9.13;;
50102;SDS011;35993;52.604;10.078;2022-12-18T12:51:35;19.37;;;9.83;;
50102;SDS011;35993;52.604;10.078;2022-12-18T12:54:04;19.27;;;9.73;;
50102;SDS011;35993;52.604;10.078;2022-12-18T12:59:36;21.13;;;8.93;;
50102;SDS011;35993;52.604;10.078;2022-12-18T13:02:14;20.90;;;9.63;;
50102;SDS011;35993;52.604;10.078;2022-12-18T13:05:11;20.33;;;8.70;;
50102;SDS011;35993;52.604;10.078;2022-12-18T13:07:54;21.13;;;9.20;;
50102;SDS011;35993;52.604;10.078;2022-12-18T13:10:25;22.87;;;9.83;;
50102;SDS011;35993;52.604;10.078;2022-12-18T13:15:33;18.37;;;8.63;;
50102;SDS011;35993;52.604;10.078;2022-12-18T13:25:48;22.30;;;9.10;;
50102;SDS011;35993;52.604;10.078;2022-12-18T13:30:59;21.20;;;9.40;;
50102;SDS011;35993;52.604;10.078;2022-12-18T13:43:46;22.60;;;9.90;;
50102;SDS011;35993;52.604;10.078;2022-12-18T13:46:23;24.67;;;9.57;;
50102;SDS011;35993;52.604;10.078;2022-12-18T13:51:47;20.53;;;9.67;;
50102;SDS011;35993;52.604;10.078;2022-12-18T13:56:59;18.67;;;9.33;;
50102;SDS011;35993;52.604;10.078;2022-12-18T13:59:25;21.80;;;10.47;;
50102;SDS011;35993;52.604;10.078;2022-12-18T14:02:15;19.80;;;10.40;;
50102;SDS011;35993;52.604;10.078;2022-12-18T14:05:04;21.17;;;9.70;;
50102;SDS011;35993;52.604;10.078;2022-12-18T14:07:30;26.97;;;11.30;;
50102;SDS011;35993;52.604;10.078;2022-12-18T14:10:22;20.30;;;9.43;;
50102;SDS011;35993;52.604;10.078;2022-12-18T14:12:49;20.70;;;10.20;;
50102;SDS011;35993;52.604;10.078;2022-12-18T14:17:50;21.70;;;10.77;;
50102;SDS011;35993;52.604;10.078;2022-12-18T14:20:18;25.10;;;11.27;;
50102;SDS011;35993;52.604;10.078;2022-12-18T14:22:46;25.07;;;11.90;;
50102;SDS011;35993;52.604;10.078;2022-12-18T14:25:18;26.60;;;11.10;;
50102;SDS011;35993;52.604;10.078;2022-12-18T14:35:29;26.63;;;12.25;;
50102;SDS011;35993;52.604;10.078;2022-12-18T14:38:16;26.13;;;11.60;;
50102;SDS011;35993;52.604;10.078;2022-12-18T14:40:47;25.15;;;11.73;;
50102;SDS011;35993;52.604;10.078;2022-12-18T14:43:17;29.43;;;12.23;;
50102;SDS011;35993;52.604;10.078;2022-12-18T14:46:04;26.57;;;11.60;;
50102;SDS011;35993;52.604;10.078;2022-12-18T14:48:51;27.10;;;11.80;;
50102;SDS011;35993;52.604;10.078;2022-12-18T14:51:19;24.27;;;12.00;;
50102;SDS011;35993;52.604;10.078;2022-12-18T14:53:47;30.90;;;12.67;;
50102;SDS011;35993;52.604;10.078;2022-12-18T14:56:22;24.77;;;11.90;;
50102;SDS011;35993;52.604;10.078;2022-12-18T14:58:56;25.30;;;11.20;;
50102;SDS011;35993;52.604;10.078;2022-12-18T15:01:25;26.20;;;12.10;;
50102;SDS011;35993;52.604;10.078;2022-12-18T15:03:55;28.03;;;12.20;;
50102;SDS011;35993;52.604;10.078;2022-12-18T15:06:35;23.50;;;10.97;;
50102;SDS011;35993;52.604;10.078;2022-12-18T15:09:04;23.40;;;11.10;;
50102;SDS011;35993;52.604;10.078;2022-12-18T15:11:46;27.37;;;12.37;;
50102;SDS011;35993;52.604;10.078;2022-12-18T15:14:22;28.00;;;11.73;;
50102;SDS011;35993;52.604;10.078;2022-12-18T15:16:59;27.70;;;11.80;;
50102;SDS011;35993;52.604;10.078;2022-12-18T15:19:47;27.57;;;11.17;;
50102;SDS011;35993;52.604;10.078;2022-12-18T15:22:17;23.63;;;11.27;;
50102;SDS011;35993;52.604;10.078;2022-12-18T15:24:43;24.63;;;11.50;;
50102;SDS011;35993;52.604;10.078;2022-12-18T15:32:35;23.77;;;11.00;;
50102;SDS011;35993;52.604;10.078;2022-12-18T15:35:03;28.57;;;11.40;;
50102;SDS011;35993;52.604;10.078;2022-12-18T15:37:42;23.80;;;11.60;;
50102;SDS011;35993;52.604;10.078;2022-12-18T15:40:11;24.43;;;11.57;;
50102;SDS011;35993;52.604;10.078;2022-12-18T15:42:39;29.57;;;11.30;;
50102;SDS011;35993;52.604;10.078;2022-12-18T15:45:23;26.03;;;12.53;;
50102;SDS011;35993;52.604;10.078;2022-12-18T15:47:48;23.10;;;10.60;;
50102;SDS011;35993;52.604;10.078;2022-12-18T15:50:40;25.80;;;11.50;;
50102;SDS011;35993;52.604;10.078;2022-12-18T15:53:07;21.17;;;10.50;;
50102;SDS011;35993;52.604;10.078;2022-12-18T15:55:34;27.43;;;10.90;;
50102;SDS011;35993;52.604;10.078;2022-12-18T15:58:43;21.47;;;10.73;;
50102;SDS011;35993;52.604;10.078;2022-12-18T16:01:09;23.37;;;10.50;;
50102;SDS011;35993;52.604;10.078;2022-12-18T16:03:36;21.37;;;10.23;;
50102;SDS011;35993;52.604;10.078;2022-12-18T16:06:02;20.73;;;10.23;;
50102;SDS011;35993;52.604;10.078;2022-12-18T16:08:28;24.10;;;10.63;;
50102;SDS011;35993;52.604;10.078;2022-12-18T16:10:55;21.30;;;10.90;;
50102;SDS011;35993;52.604;10.078;2022-12-18T16:13:22;24.93;;;10.27;;
50102;SDS011;35993;52.604;10.078;2022-12-18T16:16:03;20.30;;;9.43;;
50102;SDS011;35993;52.604;10.078;2022-12-18T16:18:28;31.30;;;11.20;;
50102;SDS011;35993;52.604;10.078;2022-12-18T16:20:55;19.43;;;9.70;;
50102;SDS011;35993;52.604;10.078;2022-12-18T16:23:22;22.07;;;9.77;;
50102;SDS011;35993;52.604;10.078;2022-12-18T16:25:48;22.37;;;9.30;;
50102;SDS011;35993;52.604;10.078;2022-12-18T16:28:13;18.73;;;9.73;;
50102;SDS011;35993;52.604;10.078;2022-12-18T16:30:39;22.90;;;10.67;;
50102;SDS011;35993;52.604;10.078;2022-12-18T16:33:05;18.80;;;9.40;;
50102;SDS011;35993;52.604;10.078;2022-12-18T16:35:42;21.73;;;9.30;;
50102;SDS011;35993;52.604;10.078;2022-12-18T16:38:08;20.37;;;9.93;;
50102;SDS011;35993;52.604;10.078;2022-12-18T16:40:34;19.80;;;9.23;;
50102;SDS011;35993;52.604;10.078;2022-12-18T16:43:19;18.30;;;9.33;;
50102;SDS011;35993;52.604;10.078;2022-12-18T16:45:45;16.40;;;8.70;;